Time;durP1;ratioP1;P1;durP2;ratioP2;P2;SDS_P1;SDS_P2;PMS_P1;PMS_P2;Temp;Humidity;BMP_temperature;BMP_pressure;BME280_temperature;BME280_humidity;BME280_pressure;Samples;Min_cycle;Max_cycle;Signal;HPM_P1;HPM_P2
2024/01/11 00:02:17;;;;;;;53.33;20.35;;;6.40;99.90;;;;;;5013596;28;20021;-82
2024/01/11 00:04:43;;;;;;;52.80;20.52;;;6.50;99.90;;;;;;5031061;28;20021;-81
2024/01/11 00:07:09;;;;;;;49.70;18.25;;;6.40;99.90;;;;;;5015995;28;20398;-81
2024/01/11 00:09:39;;;;;;;52.42;19.83;;;6.40;99.90;;;;;;5014724;28;20017;-81
2024/01/11 00:12:05;;;;;;;48.50;19.88;;;6.40;99.90;;;;;;5015176;28;20033;-81
2024/01/11 00:14:31;;;;;;;50.72;18.60;;;6.40;99.90;;;;;;5012146;28;20029;-81
2024/01/11 00:16:57;;;;;;;57.30;21.10;;;6.40;99.90;;;;;;5018774;28;20062;-81
2024/01/11 00:19:22;;;;;;;50.78;19.02;;;6.40;99.90;;;;;;5016075;28;20021;-82
2024/01/11 00:21:48;;;;;;;48.42;19.42;;;6.40;99.90;;;;;;5036868;28;20031;-82
2024/01/11 00:24:13;;;;;;;55.70;21.20;;;6.40;99.90;;;;;;5014382;28;20112;-82
2024/01/11 00:26:39;;;;;;;49.55;19.20;;;6.40;99.90;;;;;;5013656;28;20029;-81
2024/01/11 00:29:04;;;;;;;51.58;20.00;;;6.40;99.90;;;;;;5016591;28;20025;-82
2024/01/11 00:31:30;;;;;;;52.20;19.75;;;6.40;99.90;;;;;;5034003;28;20026;-82
2024/01/11 00:33:55;;;;;;;57.45;21.25;;;6.40;99.90;;;;;;5035628;28;20017;-82
2024/01/11 00:36:21;;;;;;;49.53;19.85;;;6.40;99.90;;;;;;5013998;28;20022;-82
2024/01/11 00:38:47;;;;;;;48.95;20.13;;;6.40;99.90;;;;;;5031538;28;20029;-82
2024/01/11 00:41:12;;;;;;;55.63;20.00;;;6.40;99.90;;;;;;5033982;28;20060;-81
2024/01/11 00:43:38;;;;;;;54.78;21.02;;;6.40;99.90;;;;;;5035444;28;20030;-82
2024/01/11 00:46:03;;;;;;;47.15;18.70;;;6.40;99.90;;;;;;5015118;28;20488;-82
2024/01/11 00:48:29;;;;;;;49.53;21.13;;;6.40;99.90;;;;;;5013554;28;20028;-82
2024/01/11 00:50:54;;;;;;;54.67;20.38;;;6.40;99.90;;;;;;5025502;28;20030;-82
2024/01/11 00:53:20;;;;;;;51.35;20.92;;;6.40;99.90;;;;;;5016284;28;20027;-82
2024/01/11 00:55:46;;;;;;;51.30;19.90;;;6.40;99.90;;;;;;5021007;28;20017;-81
2024/01/11 00:58:11;;;;;;;48.65;20.02;;;6.40;99.90;;;;;;5012362;28;20498;-82
2024/01/11 01:00:37;;;;;;;51.13;19.88;;;6.40;99.90;;;;;;5016073;28;20530;-82
2024/01/11 01:03:03;;;;;;;57.90;20.40;;;6.40;99.90;;;;;;5027512;28;20030;-81
2024/01/11 01:05:28;;;;;;;53.75;19.40;;;6.30;99.90;;;;;;5019959;28;20503;-81
2024/01/11 01:07:54;;;;;;;57.72;21.17;;;6.30;99.90;;;;;;5020441;28;20020;-82
2024/01/11 01:10:19;;;;;;;56.60;21.17;;;6.40;99.90;;;;;;5031970;28;20028;-81
2024/01/11 01:12:45;;;;;;;58.20;19.80;;;6.30;99.90;;;;;;5031095;28;20033;-82
2024/01/11 01:15:11;;;;;;;62.75;20.77;;;6.30;99.90;;;;;;5012428;28;20029;-82
2024/01/11 01:17:37;;;;;;;52.42;21.38;;;6.30;99.90;;;;;;5034582;28;20021;-81
2024/01/11 01:20:03;;;;;;;52.42;20.98;;;6.40;99.90;;;;;;5034652;28;20140;-82
2024/01/11 01:22:29;;;;;;;45.35;20.23;;;6.30;99.90;;;;;;5017888;28;20549;-82
2024/01/11 01:24:54;;;;;;;54.13;20.58;;;6.40;99.90;;;;;;5011992;28;20067;-83
2024/01/11 01:27:20;;;;;;;56.28;20.23;;;6.40;99.90;;;;;;5028698;28;20025;-83
2024/01/11 01:29:46;;;;;;;59.45;20.77;;;6.30;99.90;;;;;;5013370;28;20076;-81
2024/01/11 01:32:11;;;;;;;58.83;22.25;;;6.30;99.90;;;;;;5035860;28;20022;-81
2024/01/11 01:34:37;;;;;;;59.55;20.75;;;6.30;99.90;;;;;;5015317;28;20109;-81
2024/01/11 01:37:02;;;;;;;52.97;20.60;;;6.30;99.90;;;;;;5032811;28;20037;-81
2024/01/11 01:39:28;;;;;;;62.00;21.48;;;6.30;99.90;;;;;;5012651;28;20071;-81
2024/01/11 01:41:53;;;;;;;58.50;20.27;;;6.30;99.90;;;;;;5014734;28;20025;-83
2024/01/11 01:44:19;;;;;;;57.63;20.80;;;6.30;99.90;;;;;;5032913;28;20014;-82
2024/01/11 01:46:45;;;;;;;56.55;20.33;;;6.30;99.90;;;;;;5034252;28;20673;-82
2024/01/11 01:49:11;;;;;;;46.85;20.13;;;6.30;99.90;;;;;;5013556;28;20022;-82
2024/01/11 01:51:37;;;;;;;54.75;21.85;;;6.30;99.90;;;;;;5012169;28;20063;-81
2024/01/11 01:54:03;;;;;;;62.60;21.15;;;6.30;99.90;;;;;;5036205;28;20061;-82
2024/01/11 01:56:29;;;;;;;53.58;19.83;;;6.30;99.90;;;;;;5032012;28;20018;-82
2024/01/11 01:58:55;;;;;;;53.97;22.75;;;6.30;99.90;;;;;;5015709;28;20079;-82
2024/01/11 02:01:23;;;;;;;54.92;21.50;;;6.30;99.90;;;;;;5010213;28;20018;-82
2024/01/11 02:03:51;;;;;;;53.55;20.08;;;6.30;99.90;;;;;;5028288;28;20025;-82
2024/01/11 02:06:20;;;;;;;55.00;22.15;;;6.30;99.90;;;;;;5011751;28;20028;-82
2024/01/11 02:08:46;;;;;;;56.83;20.42;;;6.20;99.90;;;;;;5011514;28;20018;-81
2024/01/11 02:11:11;;;;;;;65.53;20.58;;;6.30;99.90;;;;;;5012579;28;20446;-81
2024/01/11 02:13:37;;;;;;;54.60;21.45;;;6.20;99.90;;;;;;5014893;28;20071;-83
2024/01/11 02:16:04;;;;;;;56.50;21.38;;;6.30;99.90;;;;;;5007053;28;20522;-82
2024/01/11 02:18:29;;;;;;;66.30;22.05;;;6.30;99.90;;;;;;5025022;28;20052;-81
2024/01/11 02:20:56;;;;;;;56.83;21.17;;;6.30;99.90;;;;;;5016721;28;20053;-81
2024/01/11 02:23:24;;;;;;;56.95;20.83;;;6.20;99.90;;;;;;5010898;28;20022;-81
2024/01/11 02:25:50;;;;;;;64.70;21.70;;;6.20;99.90;;;;;;5012250;28;20064;-82
2024/01/11 02:28:15;;;;;;;63.65;23.38;;;6.30;99.90;;;;;;5012420;28;20494;-82
2024/01/11 02:30:42;;;;;;;61.88;20.02;;;6.30;99.90;;;;;;5032700;28;20026;-81
2024/01/11 02:33:08;;;;;;;56.15;20.38;;;6.20;99.90;;;;;;5013977;28;20082;-82
2024/01/11 02:35:35;;;;;;;60.22;20.75;;;6.20;99.90;;;;;;5030219;28;20029;-81
2024/01/11 02:38:01;;;;;;;55.20;21.35;;;6.30;99.90;;;;;;5014913;28;20025;-81
2024/01/11 02:40:27;;;;;;;63.92;22.77;;;6.30;99.90;;;;;;5015919;28;20033;-82
2024/01/11 02:42:52;;;;;;;61.92;21.63;;;6.30;99.90;;;;;;5035240;28;20132;-82
2024/01/11 02:45:18;;;;;;;55.95;20.30;;;6.30;99.90;;;;;;5017903;28;20026;-82
2024/01/11 02:47:44;;;;;;;63.58;20.92;;;6.20;99.90;;;;;;5017493;28;20633;-82
2024/01/11 02:50:11;;;;;;;64.25;19.60;;;6.20;99.90;;;;;;5034505;28;20049;-82
2024/01/11 02:52:37;;;;;;;53.60;19.63;;;6.20;99.90;;;;;;5015017;28;20033;-81
2024/01/11 02:55:03;;;;;;;53.30;20.00;;;6.20;99.90;;;;;;5032387;28;20026;-81
2024/01/11 02:57:29;;;;;;;63.40;19.67;;;6.20;99.90;;;;;;5037172;28;20021;-81
2024/01/11 02:59:54;;;;;;;57.65;19.35;;;6.20;99.90;;;;;;5038885;28;20021;-82
2024/01/11 03:02:20;;;;;;;52.22;20.90;;;6.20;99.90;;;;;;5032166;28;20021;-81
2024/01/11 03:04:46;;;;;;;51.33;19.45;;;6.20;99.90;;;;;;5015067;28;20374;-81
2024/01/11 03:07:11;;;;;;;59.28;19.63;;;6.30;99.90;;;;;;5017767;28;20013;-81
2024/01/11 03:09:37;;;;;;;55.00;19.73;;;6.30;99.90;;;;;;5011041;28;20035;-81
2024/01/11 03:12:02;;;;;;;51.58;18.60;;;6.30;99.90;;;;;;5034961;28;20033;-83
2024/01/11 03:14:28;;;;;;;49.80;18.77;;;6.30;99.90;;;;;;5031112;28;20025;-82
2024/01/11 03:16:54;;;;;;;56.20;18.92;;;6.30;99.90;;;;;;5033351;28;20434;-81
2024/01/11 03:19:19;;;;;;;51.08;20.17;;;6.30;99.90;;;;;;5032546;28;20520;-82
2024/01/11 03:21:46;;;;;;;60.47;20.08;;;6.20;99.90;;;;;;5026725;28;20479;-83
2024/01/11 03:24:12;;;;;;;56.22;19.20;;;6.20;99.90;;;;;;5016653;28;20021;-81
2024/01/11 03:26:37;;;;;;;52.97;19.33;;;6.20;99.90;;;;;;5015901;28;20017;-81
2024/01/11 03:29:03;;;;;;;53.85;19.83;;;6.30;99.90;;;;;;5016781;28;20106;-81
2024/01/11 03:31:28;;;;;;;54.90;19.45;;;6.30;99.90;;;;;;5013212;28;20022;-81
2024/01/11 03:33:54;;;;;;;59.60;19.92;;;6.20;99.90;;;;;;5015901;28;20029;-82
2024/01/11 03:36:24;;;;;;;60.30;21.92;;;6.20;99.90;;;;;;5015351;28;20021;-81
2024/01/11 03:38:50;;;;;;;;;;;6.20;99.90;;;;;;5035434;28;20014;-81
2024/01/11 03:41:16;;;;;;;56.10;19.20;;;6.20;99.90;;;;;;5013597;28;20375;-81
2024/01/11 03:43:41;;;;;;;50.75;19.25;;;6.20;99.90;;;;;;5014271;28;20032;-81
2024/01/11 03:46:07;;;;;;;56.97;19.23;;;6.20;99.90;;;;;;5015518;28;20444;-83
2024/01/11 03:48:33;;;;;;;51.40;19.00;;;6.20;99.90;;;;;;5013352;28;20671;-81
2024/01/11 03:50:58;;;;;;;56.00;19.65;;;6.20;99.90;;;;;;5017297;28;20022;-82
2024/01/11 03:53:24;;;;;;;66.43;19.55;;;6.20;99.90;;;;;;5015976;28;20025;-82
2024/01/11 03:55:49;;;;;;;49.08;19.55;;;6.20;99.90;;;;;;5015391;28;20021;-81
2024/01/11 03:58:15;;;;;;;54.30;18.83;;;6.20;99.90;;;;;;5016934;28;20047;-81
2024/01/11 04:00:40;;;;;;;50.10;18.90;;;6.20;99.90;;;;;;5030432;28;20029;-81
2024/01/11 04:03:06;;;;;;;59.53;19.65;;;6.20;99.90;;;;;;5032864;28;20028;-81
2024/01/11 04:05:32;;;;;;;50.90;19.60;;;6.20;99.90;;;;;;5014335;28;20033;-82
2024/01/11 04:07:58;;;;;;;57.97;20.67;;;6.20;99.90;;;;;;5013225;28;20047;-82
2024/01/11 04:10:23;;;;;;;56.15;20.05;;;6.20;99.90;;;;;;5013707;28;20104;-82
2024/01/11 04:12:49;;;;;;;55.17;21.00;;;6.20;99.90;;;;;;5015895;28;20029;-81
2024/01/11 04:15:14;;;;;;;52.40;20.63;;;6.20;99.90;;;;;;5016299;28;20018;-81
2024/01/11 04:17:40;;;;;;;55.75;19.70;;;6.20;99.90;;;;;;5013213;28;20025;-82
2024/01/11 04:20:08;;;;;;;54.63;20.55;;;6.20;99.90;;;;;;5031093;28;20025;-81
2024/01/11 04:22:34;;;;;;;54.58;19.88;;;6.20;99.90;;;;;;5035875;28;20063;-82
2024/01/11 04:25:00;;;;;;;60.10;20.63;;;6.20;99.90;;;;;;5019236;28;20030;-82
2024/01/11 04:27:26;;;;;;;56.67;21.02;;;6.20;99.90;;;;;;5016713;28;20014;-82
2024/01/11 04:29:51;;;;;;;63.00;20.42;;;6.20;99.90;;;;;;5015513;28;20018;-81
2024/01/11 04:32:17;;;;;;;54.22;19.70;;;6.20;99.90;;;;;;5031135;28;20029;-82
2024/01/11 04:34:42;;;;;;;64.05;21.73;;;6.20;99.90;;;;;;5015035;28;20025;-82
2024/01/11 04:37:08;;;;;;;58.75;20.42;;;6.20;99.90;;;;;;5032518;28;20050;-82
2024/01/11 04:39:33;;;;;;;54.88;19.50;;;6.20;99.90;;;;;;5013319;28;20113;-82
2024/01/11 04:42:00;;;;;;;51.17;20.90;;;6.20;99.90;;;;;;5034237;28;20591;-81
2024/01/11 04:44:26;;;;;;;57.42;19.80;;;6.20;99.90;;;;;;5013400;28;20108;-81
2024/01/11 04:46:51;;;;;;;59.65;21.23;;;6.20;99.90;;;;;;5014588;28;20730;-82
2024/01/11 04:49:17;;;;;;;56.25;20.20;;;6.20;99.90;;;;;;5012878;28;20021;-83
2024/01/11 04:51:42;;;;;;;55.90;21.52;;;6.20;99.90;;;;;;5014946;28;20014;-84
2024/01/11 04:54:08;;;;;;;57.75;20.42;;;6.20;99.90;;;;;;5014848;28;20017;-82
2024/01/11 04:56:34;;;;;;;55.90;20.25;;;6.20;99.90;;;;;;5009064;28;20033;-82
2024/01/11 04:58:59;;;;;;;64.10;21.30;;;6.20;99.90;;;;;;5013635;28;20387;-82
2024/01/11 05:01:25;;;;;;;69.32;22.63;;;6.20;99.90;;;;;;5010838;28;20063;-82
2024/01/11 05:03:50;;;;;;;73.18;21.83;;;6.20;99.90;;;;;;5030813;28;20530;-82
2024/01/11 05:06:21;;;;;;;56.95;21.20;;;6.20;99.90;;;;;;5014755;28;20025;-81
2024/01/11 05:08:47;;;;;;;60.75;20.95;;;6.20;99.90;;;;;;5012569;28;20108;-82
2024/01/11 05:11:17;;;;;;;58.47;20.30;;;6.20;99.90;;;;;;5017132;28;20024;-81
2024/01/11 05:13:42;;;;;;;70.53;21.63;;;6.20;99.90;;;;;;5010820;28;20029;-81
2024/01/11 05:16:19;;;;;;;67.32;21.10;;;6.20;99.90;;;;;;5014108;28;20264;-82
2024/01/11 05:18:45;;;;;;;55.00;19.95;;;6.20;99.90;;;;;;5016080;28;20442;-82
2024/01/11 05:21:10;;;;;;;64.35;20.65;;;6.20;99.90;;;;;;5012191;28;20025;-83
2024/01/11 05:23:36;;;;;;;62.70;21.40;;;6.20;99.90;;;;;;5012289;28;20024;-81
2024/01/11 05:26:02;;;;;;;59.03;21.63;;;6.20;99.90;;;;;;5016118;28;20036;-81
2024/01/11 05:28:27;;;;;;;71.10;22.33;;;6.20;99.90;;;;;;5012925;28;20026;-82
2024/01/11 05:30:53;;;;;;;60.28;21.75;;;6.20;99.90;;;;;;5031107;28;20438;-81
2024/01/11 05:33:18;;;;;;;71.25;22.60;;;6.20;99.90;;;;;;5015100;28;20021;-81
2024/01/11 05:35:44;;;;;;;57.22;21.00;;;6.20;99.90;;;;;;5013866;28;20021;-81
2024/01/11 05:38:09;;;;;;;57.15;20.92;;;6.20;99.90;;;;;;5017788;28;20032;-81
2024/01/11 05:40:35;;;;;;;68.90;22.50;;;6.20;99.90;;;;;;5026179;28;20032;-82
2024/01/11 05:43:01;;;;;;;71.78;22.02;;;6.20;99.90;;;;;;5013612;28;20017;-81
2024/01/11 05:45:26;;;;;;;67.45;21.23;;;6.20;99.90;;;;;;5011551;28;20022;-82
2024/01/11 05:47:52;;;;;;;64.88;22.65;;;6.20;99.90;;;;;;5011487;28;20479;-81
2024/01/11 05:50:17;;;;;;;60.70;21.05;;;6.20;99.90;;;;;;5029545;28;20020;-82
2024/01/11 05:52:43;;;;;;;61.97;22.00;;;6.20;99.90;;;;;;5026242;28;20026;-82
2024/01/11 05:55:08;;;;;;;60.20;21.35;;;6.20;99.90;;;;;;5013424;28;20025;-82
2024/01/11 05:57:34;;;;;;;72.22;22.45;;;6.20;99.90;;;;;;5012665;28;20025;-82
2024/01/11 05:59:59;;;;;;;69.25;22.42;;;6.20;99.90;;;;;;5031528;28;20029;-82
2024/01/11 06:02:25;;;;;;;71.65;23.65;;;6.20;99.90;;;;;;5032600;28;20031;-82
2024/01/11 06:04:51;;;;;;;63.75;22.48;;;6.20;99.90;;;;;;5012154;28;20014;-81
2024/01/11 06:07:16;;;;;;;73.40;24.25;;;6.20;99.90;;;;;;5012507;28;20505;-81
2024/01/11 06:09:42;;;;;;;74.50;22.95;;;6.10;99.90;;;;;;5012911;28;20079;-82
2024/01/11 06:12:08;;;;;;;69.03;22.80;;;6.10;99.90;;;;;;5011961;28;20033;-83
2024/01/11 06:14:34;;;;;;;66.40;22.70;;;6.20;99.90;;;;;;5033111;28;20116;-83
2024/01/11 06:17:00;;;;;;;69.75;23.95;;;6.10;99.90;;;;;;5014020;28;20045;-83
2024/01/11 06:19:25;;;;;;;63.25;21.98;;;6.20;99.90;;;;;;5017038;28;20025;-83
2024/01/11 06:21:51;;;;;;;55.95;23.15;;;6.20;99.90;;;;;;5016723;28;20029;-81
2024/01/11 06:24:16;;;;;;;76.82;24.92;;;6.20;99.90;;;;;;5033062;28;20009;-82
2024/01/11 06:26:42;;;;;;;69.20;22.17;;;6.20;99.90;;;;;;5016418;28;20053;-81
2024/01/11 06:29:07;;;;;;;65.60;21.92;;;6.10;99.90;;;;;;5017065;28;20491;-82
2024/01/11 06:31:33;;;;;;;64.82;21.42;;;6.10;99.90;;;;;;5015410;28;20025;-81
2024/01/11 06:33:59;;;;;;;65.78;22.02;;;6.10;99.90;;;;;;5034326;28;20025;-82
2024/01/11 06:36:24;;;;;;;66.20;22.98;;;6.10;99.90;;;;;;5013701;28;20022;-81
2024/01/11 06:38:50;;;;;;;76.35;24.55;;;6.10;99.90;;;;;;5012793;28;20555;-81
2024/01/11 06:41:15;;;;;;;68.55;24.25;;;6.10;99.90;;;;;;5010522;28;20057;-81
2024/01/11 06:43:41;;;;;;;64.35;23.42;;;6.10;99.90;;;;;;5016175;28;20022;-81
2024/01/11 06:46:07;;;;;;;66.80;23.15;;;6.10;99.90;;;;;;5030479;28;20025;-81
2024/01/11 06:48:32;;;;;;;69.63;23.63;;;6.10;99.90;;;;;;5014247;28;20377;-81
2024/01/11 06:50:58;;;;;;;60.05;21.85;;;6.10;99.90;;;;;;5014148;28;20071;-81
2024/01/11 06:53:24;;;;;;;65.00;23.95;;;6.10;99.90;;;;;;5016708;28;20550;-82
2024/01/11 06:55:51;;;;;;;57.60;22.70;;;6.10;99.90;;;;;;5018517;28;20018;-83
2024/01/11 06:58:17;;;;;;;71.80;25.20;;;6.10;99.90;;;;;;5015209;28;20475;-83
2024/01/11 07:00:43;;;;;;;61.17;22.75;;;6.10;99.90;;;;;;5017031;28;20033;-83
2024/01/11 07:03:11;;;;;;;60.92;20.73;;;6.10;99.90;;;;;;5015310;28;20029;-83
2024/01/11 07:05:37;;;;;;;58.30;22.88;;;6.10;99.90;;;;;;5012449;28;20020;-83
2024/01/11 07:08:04;;;;;;;65.55;23.00;;;6.10;99.90;;;;;;5014103;28;20022;-82
2024/01/11 07:10:29;;;;;;;66.50;24.17;;;6.10;99.90;;;;;;5014098;28;20030;-81
2024/01/11 07:12:55;;;;;;;69.05;24.83;;;6.10;99.90;;;;;;5032402;28;20040;-81
2024/01/11 07:15:20;;;;;;;71.30;23.73;;;6.10;99.90;;;;;;5012296;28;20064;-81
2024/01/11 07:17:46;;;;;;;65.88;24.73;;;6.10;99.90;;;;;;5010201;28;20053;-81
2024/01/11 07:20:13;;;;;;;62.25;24.02;;;6.10;99.90;;;;;;5012700;28;20088;-81
2024/01/11 07:22:38;;;;;;;73.60;24.80;;;6.10;99.90;;;;;;5023300;28;20053;-82
2024/01/11 07:25:04;;;;;;;73.90;23.52;;;6.10;99.90;;;;;;5014472;28;20049;-81
2024/01/11 07:27:29;;;;;;;64.53;23.05;;;6.10;99.90;;;;;;5035631;28;20028;-81
2024/01/11 07:29:55;;;;;;;72.25;25.50;;;6.10;99.90;;;;;;5013626;28;20021;-81
2024/01/11 07:32:20;;;;;;;67.70;22.92;;;6.10;99.90;;;;;;5026624;28;20030;-81
2024/01/11 07:34:46;;;;;;;73.70;25.15;;;6.10;99.90;;;;;;5015032;28;20036;-83
2024/01/11 07:37:11;;;;;;;64.55;23.35;;;6.10;99.90;;;;;;5014028;28;20108;-81
2024/01/11 07:39:37;;;;;;;76.35;25.20;;;6.10;99.90;;;;;;5033620;28;20100;-83
2024/01/11 07:42:03;;;;;;;72.55;24.85;;;6.10;99.90;;;;;;5011870;28;20116;-81
2024/01/11 07:44:28;;;;;;;80.35;25.98;;;6.10;99.90;;;;;;5014039;28;20040;-82
2024/01/11 07:46:54;;;;;;;60.20;22.75;;;6.10;99.90;;;;;;5013898;28;20565;-81
2024/01/11 07:49:20;;;;;;;64.13;24.85;;;6.10;99.90;;;;;;5013693;28;20032;-82
2024/01/11 07:51:45;;;;;;;73.88;23.58;;;6.10;99.90;;;;;;5017115;28;20009;-80
2024/01/11 07:54:12;;;;;;;70.35;24.25;;;6.10;99.90;;;;;;5027823;28;20104;-81
2024/01/11 07:56:37;;;;;;;72.47;26.92;;;6.10;99.90;;;;;;5027929;28;20021;-81
2024/01/11 07:59:03;;;;;;;72.97;24.73;;;6.10;99.90;;;;;;5029552;28;20032;-81
2024/01/11 08:01:28;;;;;;;69.68;24.25;;;6.10;99.90;;;;;;5031045;28;20025;-82
2024/01/11 08:03:54;;;;;;;72.78;25.52;;;6.10;99.90;;;;;;5014755;28;20021;-83
2024/01/11 08:06:19;;;;;;;69.18;24.38;;;6.10;99.90;;;;;;5012163;28;20022;-82
2024/01/11 08:08:51;;;;;;;71.78;26.65;;;6.10;99.90;;;;;;5014913;28;20037;-82
2024/01/11 08:11:17;;;;;;;66.70;24.50;;;6.10;99.90;;;;;;5014005;28;20017;-82
2024/01/11 08:13:42;;;;;;;75.20;24.60;;;6.10;99.90;;;;;;5013112;28;20021;-82
2024/01/11 08:16:09;;;;;;;66.50;25.02;;;6.10;99.90;;;;;;5013717;28;20026;-83
2024/01/11 08:18:35;;;;;;;69.72;26.33;;;6.10;99.90;;;;;;5007631;28;20628;-82
2024/01/11 08:21:00;;;;;;;70.03;24.70;;;6.10;99.90;;;;;;5026832;28;20029;-83
2024/01/11 08:23:26;;;;;;;64.75;23.20;;;6.10;99.90;;;;;;5014623;28;20601;-83
2024/01/11 08:25:52;;;;;;;75.50;25.80;;;6.10;99.90;;;;;;5030981;28;20025;-83
2024/01/11 08:28:18;;;;;;;73.35;24.02;;;6.10;99.90;;;;;;5015664;28;20017;-83
2024/01/11 08:30:44;;;;;;;68.35;24.20;;;6.10;99.90;;;;;;5011931;28;20510;-82
2024/01/11 08:33:09;;;;;;;65.68;24.15;;;6.10;99.90;;;;;;5012323;28;20111;-82
2024/01/11 08:35:35;;;;;;;66.80;23.73;;;6.10;99.90;;;;;;5025072;28;20035;-84
2024/01/11 08:38:01;;;;;;;68.93;25.92;;;6.10;99.90;;;;;;5031375;28;20454;-82
2024/01/11 08:40:27;;;;;;;72.95;24.58;;;6.10;99.90;;;;;;5010660;28;20025;-83
2024/01/11 08:42:52;;;;;;;66.53;23.17;;;6.10;99.90;;;;;;5014909;28;20025;-82
2024/01/11 08:45:18;;;;;;;73.57;26.27;;;6.10;99.90;;;;;;5012729;28;20032;-82
2024/01/11 08:47:46;;;;;;;69.47;23.85;;;6.10;99.90;;;;;;5014667;28;20021;-83
2024/01/11 08:50:16;;;;;;;74.18;26.50;;;6.10;99.90;;;;;;5009968;28;20029;-82
2024/01/11 08:52:42;;;;;;;74.72;26.35;;;6.10;99.90;;;;;;5030045;28;20025;-82
2024/01/11 08:55:08;;;;;;;73.07;23.58;;;6.10;99.90;;;;;;5013189;28;20077;-84
2024/01/11 08:57:35;;;;;;;74.88;26.15;;;6.10;99.90;;;;;;5009298;28;20056;-83
2024/01/11 09:00:01;;;;;;;66.70;25.17;;;6.10;99.90;;;;;;5014294;28;20380;-82
2024/01/11 09:02:27;;;;;;;73.60;25.08;;;6.10;99.90;;;;;;5029760;28;20037;-82
2024/01/11 09:04:53;;;;;;;67.40;25.45;;;6.10;99.90;;;;;;5012192;28;20049;-83
2024/01/11 09:07:18;;;;;;;68.80;26.08;;;6.10;99.90;;;;;;5011942;28;20480;-82
2024/01/11 09:09:44;;;;;;;66.32;25.08;;;6.10;99.90;;;;;;5012734;28;20021;-84
2024/01/11 09:12:09;;;;;;;69.93;25.15;;;6.10;99.90;;;;;;5012933;28;20034;-83
2024/01/11 09:14:35;;;;;;;73.72;25.52;;;6.10;99.90;;;;;;5012180;28;20021;-82
2024/01/11 09:17:01;;;;;;;75.25;25.65;;;6.10;99.90;;;;;;5012109;28;20032;-83
2024/01/11 09:19:26;;;;;;;68.90;25.20;;;6.10;99.90;;;;;;5012488;28;20028;-84
2024/01/11 09:21:52;;;;;;;70.60;24.83;;;6.10;99.90;;;;;;5009509;28;20022;-83
2024/01/11 09:24:17;;;;;;;68.97;26.25;;;6.10;99.90;;;;;;5030019;28;20028;-84
2024/01/11 09:26:43;;;;;;;65.13;25.63;;;6.10;99.90;;;;;;5012942;28;20106;-82
2024/01/11 09:29:08;;;;;;;67.53;24.60;;;6.10;99.90;;;;;;5013144;28;20022;-83
2024/01/11 09:31:34;;;;;;;70.05;24.52;;;6.10;99.90;;;;;;5012074;28;20025;-84
2024/01/11 09:33:59;;;;;;;69.57;24.65;;;6.20;99.90;;;;;;5011777;28;20025;-82
2024/01/11 09:36:25;;;;;;;83.50;26.52;;;6.20;99.90;;;;;;5029088;28;20022;-82
2024/01/11 09:38:50;;;;;;;70.43;25.73;;;6.20;99.90;;;;;;5011840;28;20025;-83
2024/01/11 09:41:17;;;;;;;66.97;24.33;;;6.20;99.90;;;;;;5012304;28;20032;-82
2024/01/11 09:43:43;;;;;;;72.03;24.85;;;6.30;99.90;;;;;;5011979;28;20013;-83
2024/01/11 09:46:10;;;;;;;68.85;25.42;;;6.20;99.90;;;;;;5028548;28;20036;-83
2024/01/11 09:48:38;;;;;;;63.63;23.70;;;6.20;99.90;;;;;;5029223;28;20035;-83
2024/01/11 09:51:07;;;;;;;61.97;25.55;;;6.20;99.90;;;;;;5032666;28;20025;-83
2024/01/11 09:53:34;;;;;;;60.20;24.65;;;6.20;99.90;;;;;;5036506;28;20036;-84
2024/01/11 09:56:00;;;;;;;68.95;25.25;;;6.20;99.90;;;;;;5019023;28;20017;-83
2024/01/11 09:58:26;;;;;;;78.15;26.13;;;6.20;99.90;;;;;;5019669;28;20076;-83
2024/01/11 10:00:56;;;;;;;65.72;24.13;;;6.20;99.90;;;;;;5031440;28;20026;-84
2024/01/11 10:03:26;;;;;;;71.93;25.70;;;6.20;99.90;;;;;;5009570;28;20057;-85
2024/01/11 10:05:56;;;;;;;70.50;26.23;;;6.30;99.90;;;;;;5031924;28;20484;-84
2024/01/11 10:08:23;;;;;;;68.15;25.27;;;6.20;99.90;;;;;;5017167;28;20030;-83
2024/01/11 10:10:48;;;;;;;65.47;23.20;;;6.30;99.90;;;;;;5032472;28;20071;-84
2024/01/11 10:13:16;;;;;;;67.05;25.17;;;6.20;99.90;;;;;;5018566;28;20029;-83
2024/01/11 10:15:45;;;;;;;66.03;24.45;;;6.30;99.90;;;;;;5019170;28;20030;-84
2024/01/11 10:18:12;;;;;;;68.95;25.02;;;6.30;99.90;;;;;;5021186;28;20094;-83
2024/01/11 10:20:38;;;;;;;67.43;25.40;;;6.30;99.90;;;;;;5017080;28;20033;-84
2024/01/11 10:23:03;;;;;;;66.35;25.13;;;6.20;99.90;;;;;;5016926;28;20551;-83
2024/01/11 10:25:29;;;;;;;64.28;25.58;;;6.20;99.90;;;;;;5028743;28;20041;-83
2024/01/11 10:27:55;;;;;;;75.03;25.67;;;6.20;99.90;;;;;;5027572;28;20480;-83
2024/01/11 10:30:23;;;;;;;64.35;23.20;;;6.30;99.90;;;;;;5028911;28;20022;-83
2024/01/11 10:32:49;;;;;;;72.90;23.73;;;6.30;99.90;;;;;;5016626;28;20041;-84
2024/01/11 10:35:17;;;;;;;70.32;25.42;;;6.30;99.90;;;;;;5016376;28;20025;-84
2024/01/11 10:37:43;;;;;;;59.53;22.98;;;6.30;99.90;;;;;;5031078;28;20036;-83
2024/01/11 10:40:12;;;;;;;69.38;25.27;;;6.20;99.90;;;;;;5016106;28;20038;-83
2024/01/11 10:42:44;;;;;;;72.75;24.27;;;6.20;99.90;;;;;;5012441;28;20030;-82
2024/01/11 10:45:20;;;;;;;66.15;23.83;;;6.20;99.90;;;;;;5036270;28;20036;-83
2024/01/11 10:47:57;;;;;;;72.93;26.23;;;6.20;99.90;;;;;;5033071;28;20071;-83
2024/01/11 10:50:25;;;;;;;65.15;24.23;;;6.30;99.90;;;;;;5017375;28;20025;-84
2024/01/11 10:53:29;;;;;;;77.05;25.33;;;6.30;99.90;;;;;;5017705;28;20502;-84
2024/01/11 10:55:57;;;;;;;74.22;25.95;;;6.30;99.90;;;;;;5013877;28;20041;-84
2024/01/11 10:58:24;;;;;;;69.88;25.13;;;6.40;99.90;;;;;;5014293;28;20034;-84
2024/01/11 11:00:54;;;;;;;71.80;26.77;;;6.30;99.90;;;;;;5026480;28;20018;-84
2024/01/11 11:03:21;;;;;;;65.60;24.67;;;6.40;99.90;;;;;;5011361;28;20029;-84
2024/01/11 11:05:50;;;;;;;58.38;23.00;;;6.30;99.90;;;;;;5028819;28;20021;-84
2024/01/11 11:08:17;;;;;;;52.22;22.73;;;6.30;99.90;;;;;;5027366;28;20490;-84
2024/01/11 11:10:44;;;;;;;55.10;19.25;;;7.50;99.90;;;;;;5030641;28;20353;-84
2024/01/11 11:13:12;;;;;;;56.80;20.90;;;7.00;99.90;;;;;;5014423;28;20026;-84
2024/01/11 11:15:39;;;;;;;53.15;20.92;;;6.60;99.90;;;;;;5007804;28;20034;-84
2024/01/11 11:18:05;;;;;;;61.22;22.58;;;6.50;99.90;;;;;;5013129;28;20029;-84
2024/01/11 11:20:32;;;;;;;61.83;23.23;;;6.40;99.90;;;;;;5012853;28;20491;-84
2024/01/11 11:23:05;;;;;;;58.70;21.98;;;6.40;99.90;;;;;;5014316;28;20021;-84
2024/01/11 11:25:31;;;;;;;70.30;24.48;;;6.40;99.90;;;;;;5027940;28;20076;-84
2024/01/11 11:27:58;;;;;;;59.75;23.35;;;6.30;99.90;;;;;;5012961;28;20495;-84
2024/01/11 11:30:24;;;;;;;66.85;25.02;;;6.40;99.90;;;;;;5030282;28;20036;-83
2024/01/11 11:32:49;;;;;;;71.03;24.92;;;6.40;99.90;;;;;;5013431;28;20029;-84
2024/01/11 11:35:15;;;;;;;74.85;26.15;;;6.30;99.90;;;;;;5013693;28;20033;-83
2024/01/11 11:37:40;;;;;;;73.35;24.80;;;6.30;99.90;;;;;;5007911;28;20029;-84
2024/01/11 11:40:08;;;;;;;69.10;24.70;;;6.40;99.90;;;;;;5014843;28;20116;-84
2024/01/11 11:42:35;;;;;;;68.63;25.52;;;6.30;99.90;;;;;;5004250;28;20484;-84
2024/01/11 11:45:01;;;;;;;69.10;25.98;;;6.40;99.90;;;;;;5019426;28;20052;-84
2024/01/11 11:47:34;;;;;;;67.97;25.45;;;6.40;99.90;;;;;;5014567;28;20055;-84
2024/01/11 11:50:08;;;;;;;75.95;27.08;;;6.40;99.90;;;;;;5013362;28;20094;-84
2024/01/11 11:52:35;;;;;;;71.68;26.40;;;6.40;99.90;;;;;;5014028;28;20037;-84
2024/01/11 11:55:01;;;;;;;75.22;28.92;;;6.40;99.90;;;;;;5014259;28;20033;-84
2024/01/11 11:57:28;;;;;;;74.28;26.95;;;6.40;99.90;;;;;;5014046;28;20026;-83
2024/01/11 11:59:58;;;;;;;73.63;24.98;;;6.50;99.90;;;;;;5034841;28;20486;-88
2024/01/11 12:02:26;;;;;;;70.72;25.40;;;6.50;99.90;;;;;;5028111;28;20032;-83
2024/01/11 12:04:53;;;;;;;69.90;26.02;;;6.50;99.90;;;;;;5012892;28;20032;-84
2024/01/11 12:07:20;;;;;;;65.40;26.05;;;6.50;99.90;;;;;;5022880;28;20022;-84
2024/01/11 12:09:46;;;;;;;67.25;26.88;;;6.50;99.90;;;;;;5011889;28;20031;-84
2024/01/11 12:12:13;;;;;;;73.43;26.70;;;6.60;99.90;;;;;;5030755;28;20485;-84
2024/01/11 12:14:39;;;;;;;62.00;25.45;;;6.60;99.90;;;;;;5029705;28;20026;-84
2024/01/11 12:17:06;;;;;;;72.28;26.80;;;6.60;99.90;;;;;;5029937;28;20030;-83
2024/01/11 12:19:32;;;;;;;70.13;26.35;;;6.60;99.90;;;;;;5004325;28;20022;-83
2024/01/11 12:21:58;;;;;;;66.80;25.10;;;6.50;99.90;;;;;;5012930;28;20032;-84
2024/01/11 12:24:24;;;;;;;64.80;25.35;;;6.50;99.90;;;;;;5034900;28;20021;-85
2024/01/11 12:26:53;;;;;;;67.25;26.17;;;6.50;99.90;;;;;;5015755;28;21416;-84
2024/01/11 12:29:19;;;;;;;65.55;24.88;;;6.50;99.90;;;;;;5029223;28;20018;-83
2024/01/11 12:31:45;;;;;;;74.35;27.23;;;6.50;99.90;;;;;;5030273;28;20033;-83
2024/01/11 12:34:15;;;;;;;68.22;26.08;;;6.50;99.90;;;;;;5014497;28;20017;-83